createdAt,value
2022-12-03T00:02:00.292Z,19.88
2022-12-03T00:04:32.884Z,18.48
2022-12-03T00:07:01.645Z,20.05
2022-12-03T00:09:30.596Z,19.38
2022-12-03T00:11:59.329Z,21.60
2022-12-03T00:14:28.119Z,18.38
2022-12-03T00:16:56.791Z,19.27
2022-12-03T00:19:28.050Z,20.10
2022-12-03T00:21:58.338Z,19.55
2022-12-03T00:24:26.998Z,19.67
2022-12-03T00:26:55.683Z,19.42
2022-12-03T00:29:24.329Z,21.75
2022-12-03T00:31:56.464Z,20.67
2022-12-03T00:34:25.100Z,21.35
2022-12-03T00:36:55.924Z,17.95
2022-12-03T00:39:25.957Z,21.95
2022-12-03T00:41:54.843Z,19.30
2022-12-03T00:44:23.626Z,20.70
2022-12-03T00:46:52.616Z,19.70
2022-12-03T00:49:21.880Z,20.02
2022-12-03T00:51:52.030Z,20.95
2022-12-03T00:54:20.829Z,21.75
2022-12-03T00:56:50.808Z,22.73
2022-12-03T00:59:20.033Z,21.52
2022-12-03T01:01:48.844Z,18.30
2022-12-03T01:04:17.650Z,20.95
2022-12-03T01:06:47.043Z,20.85
2022-12-03T01:09:15.684Z,18.92
2022-12-03T01:11:47.631Z,21.10
2022-12-03T01:14:19.800Z,18.38
2022-12-03T01:16:49.037Z,18.33
2022-12-03T01:19:20.097Z,20.98
2022-12-03T01:21:51.140Z,20.08
2022-12-03T01:24:20.896Z,18.45
2022-12-03T01:26:49.673Z,19.75
2022-12-03T01:29:19.746Z,21.30
2022-12-03T01:32:05.741Z,19.52
2022-12-03T01:34:34.425Z,19.50
2022-12-03T01:37:05.652Z,19.77
2022-12-03T01:39:34.444Z,19.38
2022-12-03T01:42:04.328Z,21.83
2022-12-03T01:44:39.448Z,20.83
2022-12-03T01:47:14.949Z,19.20
2022-12-03T01:52:15.458Z,20.63
2022-12-03T01:54:48.377Z,19.55
2022-12-03T01:57:22.683Z,20.40
2022-12-03T01:59:55.840Z,19.65
2022-12-03T02:02:27.469Z,20.98
2022-12-03T02:04:57.179Z,19.30
2022-12-03T02:07:30.131Z,19.30
2022-12-03T02:10:01.797Z,19.05
2022-12-03T02:12:35.610Z,20.92
2022-12-03T02:15:08.961Z,21.75
2022-12-03T02:17:37.864Z,21.33
2022-12-03T02:20:09.452Z,21.02
2022-12-03T02:22:44.591Z,22.02
2022-12-03T02:25:17.572Z,18.73
2022-12-03T02:30:22.268Z,20.23
2022-12-03T02:32:52.846Z,20.25
2022-12-03T02:35:23.759Z,19.40
2022-12-03T02:37:59.370Z,22.60
2022-12-03T02:40:33.755Z,20.48
2022-12-03T02:43:05.023Z,20.73
2022-12-03T02:45:37.804Z,20.25
2022-12-03T02:48:11.533Z,21.63
2022-12-03T02:50:43.050Z,19.15
2022-12-03T02:53:18.355Z,18.52
2022-12-03T02:55:49.568Z,18.50
2022-12-03T02:58:19.462Z,17.13
2022-12-03T03:00:49.485Z,19.25
2022-12-03T03:03:20.003Z,18.50
2022-12-03T03:05:50.380Z,20.80
2022-12-03T03:08:19.971Z,19.20
2022-12-03T03:10:51.031Z,18.83
2022-12-03T03:13:21.401Z,19.60
2022-12-03T03:15:50.417Z,20.95
2022-12-03T03:18:19.662Z,20.52
2022-12-03T03:20:49.100Z,19.83
2022-12-03T03:23:20.330Z,19.70
2022-12-03T03:25:55.283Z,20.17
2022-12-03T03:28:24.490Z,19.30
2022-12-03T03:30:53.553Z,17.42
2022-12-03T03:33:22.973Z,19.95
2022-12-03T03:35:52.168Z,19.00
2022-12-03T03:38:22.193Z,17.92
2022-12-03T03:40:54.027Z,20.90
2022-12-03T03:43:26.316Z,19.90
2022-12-03T03:45:55.945Z,18.98
2022-12-03T03:48:25.349Z,17.98
2022-12-03T03:50:57.688Z,19.27
2022-12-03T03:53:26.617Z,20.23
2022-12-03T03:55:57.701Z,20.88
2022-12-03T03:58:28.999Z,20.45
2022-12-03T04:00:57.730Z,18.83
2022-12-03T04:03:30.274Z,19.70
2022-12-03T04:05:59.540Z,19.67
2022-12-03T04:08:31.402Z,19.13
2022-12-03T04:11:22.197Z,21.10
2022-12-03T04:13:52.242Z,19.92
2022-12-03T04:16:21.063Z,20.00
2022-12-03T04:18:50.895Z,20.00
2022-12-03T04:21:41.116Z,19.80
2022-12-03T04:24:12.973Z,20.20
2022-12-03T04:27:01.205Z,19.25
2022-12-03T04:29:29.997Z,20.52
2022-12-03T04:32:16.631Z,20.70
2022-12-03T04:35:04.740Z,21.20
2022-12-03T04:37:33.968Z,21.88
2022-12-03T04:40:22.788Z,20.23
2022-12-03T04:42:55.426Z,20.63
2022-12-03T04:45:24.143Z,22.85
2022-12-03T04:47:52.829Z,21.45
2022-12-03T04:50:21.606Z,21.65
2022-12-03T04:52:53.653Z,20.42
2022-12-03T04:55:22.704Z,22.15
2022-12-03T04:57:55.977Z,22.20
2022-12-03T05:00:27.858Z,21.05
2022-12-03T05:02:56.737Z,24.25
2022-12-03T05:05:28.344Z,21.40
2022-12-03T05:08:00.653Z,22.10
2022-12-03T05:10:44.461Z,20.05
2022-12-03T05:13:15.190Z,22.85
2022-12-03T05:15:44.788Z,21.70
2022-12-03T05:18:13.864Z,21.75
2022-12-03T05:20:41.603Z,23.02
2022-12-03T05:23:11.091Z,22.17
2022-12-03T05:25:40.192Z,22.60
2022-12-03T05:28:11.402Z,21.25
2022-12-03T05:30:41.797Z,21.23
2022-12-03T05:33:10.881Z,25.60
2022-12-03T05:35:42.253Z,21.98
2022-12-03T05:38:11.631Z,24.42
2022-12-03T05:40:40.479Z,22.35
2022-12-03T05:43:08.567Z,20.70
2022-12-03T05:45:38.974Z,21.77
2022-12-03T05:48:13.691Z,23.20
2022-12-03T05:50:46.850Z,22.63
2022-12-03T05:53:17.143Z,22.15
2022-12-03T05:55:45.916Z,20.52
2022-12-03T05:58:14.612Z,20.30
2022-12-03T06:00:43.568Z,21.45
2022-12-03T06:03:13.901Z,20.50
2022-12-03T06:05:43.170Z,22.73
2022-12-03T06:08:11.791Z,19.95
2022-12-03T06:10:41.924Z,19.92
2022-12-03T06:13:11.023Z,21.63
2022-12-03T06:15:43.685Z,22.02
2022-12-03T06:18:15.965Z,19.90
2022-12-03T06:20:44.671Z,21.27
2022-12-03T06:23:13.353Z,22.35
2022-12-03T06:25:44.496Z,21.10
2022-12-03T06:28:16.817Z,21.20
2022-12-03T06:30:45.640Z,21.02
2022-12-03T06:33:15.896Z,20.65
2022-12-03T06:35:44.530Z,22.33
2022-12-03T06:38:13.377Z,21.08
2022-12-03T06:41:11.027Z,19.77
2022-12-03T06:43:40.362Z,20.23
2022-12-03T06:46:12.629Z,19.48
2022-12-03T06:48:43.163Z,20.98
2022-12-03T06:51:12.588Z,20.17
2022-12-03T06:53:43.964Z,21.08
2022-12-03T06:56:14.058Z,23.88
2022-12-03T06:58:43.838Z,22.42
2022-12-03T07:01:13.491Z,22.42
2022-12-03T07:03:44.386Z,25.02
2022-12-03T07:06:14.300Z,22.23
2022-12-03T07:08:46.080Z,21.52
2022-12-03T07:11:29.743Z,26.60
2022-12-03T07:14:04.709Z,21.48
2022-12-03T07:16:35.978Z,22.63
2022-12-03T07:19:08.293Z,22.27
2022-12-03T07:21:38.403Z,25.20
2022-12-03T07:24:09.850Z,24.88
2022-12-03T07:26:38.797Z,22.42
2022-12-03T07:29:09.935Z,25.35
2022-12-03T07:31:38.803Z,21.92
2022-12-03T07:34:09.163Z,24.52
2022-12-03T07:36:40.379Z,25.20
2022-12-03T07:39:13.898Z,23.67
2022-12-03T07:41:46.145Z,23.83
2022-12-03T07:44:15.078Z,25.95
2022-12-03T07:46:44.307Z,25.63
2022-12-03T07:49:17.512Z,25.92
2022-12-03T07:51:53.610Z,25.15
2022-12-03T07:54:22.858Z,25.38
2022-12-03T07:57:00.901Z,23.77
2022-12-03T07:59:30.744Z,25.10
2022-12-03T08:02:02.693Z,25.80
2022-12-03T08:04:36.215Z,25.23
2022-12-03T08:07:06.324Z,27.52
2022-12-03T08:09:35.640Z,26.88
2022-12-03T08:12:16.185Z,29.33
2022-12-03T08:14:45.310Z,26.98
2022-12-03T08:17:17.942Z,23.35
2022-12-03T08:19:50.545Z,27.10
2022-12-03T08:22:22.325Z,25.85
2022-12-03T08:24:51.225Z,24.92
2022-12-03T08:27:20.905Z,25.83
2022-12-03T08:30:01.155Z,24.80
2022-12-03T08:32:32.331Z,25.52
2022-12-03T08:35:03.417Z,26.00
2022-12-03T08:37:37.240Z,25.45
2022-12-03T08:40:21.310Z,26.55
2022-12-03T08:45:40.688Z,25.17
2022-12-03T08:48:26.622Z,23.92
2022-12-03T08:51:01.689Z,23.50
2022-12-03T08:53:33.261Z,59.00
2022-12-03T08:56:03.208Z,30.40
2022-12-03T08:58:38.036Z,23.67
2022-12-03T09:01:28.496Z,22.55
2022-12-03T09:04:16.409Z,21.98
2022-12-03T09:06:46.769Z,23.40
2022-12-03T09:09:15.404Z,22.55
2022-12-03T09:11:44.983Z,21.25
2022-12-03T09:14:18.452Z,24.02
2022-12-03T09:16:48.217Z,23.08
2022-12-03T09:19:19.752Z,22.50
2022-12-03T09:21:50.210Z,21.23
2022-12-03T09:24:19.197Z,22.83
2022-12-03T09:26:51.117Z,23.45
2022-12-03T09:29:22.259Z,21.98
2022-12-03T09:31:53.478Z,21.70
2022-12-03T09:34:23.690Z,21.20
2022-12-03T09:36:53.733Z,20.75
2022-12-03T09:39:22.410Z,22.38
2022-12-03T09:41:51.651Z,22.60
2022-12-03T09:44:20.836Z,18.98
2022-12-03T09:46:52.076Z,23.40
2022-12-03T09:49:22.169Z,20.90
2022-12-03T09:51:57.747Z,24.88
2022-12-03T09:54:28.821Z,22.33
2022-12-03T09:57:00.384Z,22.65
2022-12-03T09:59:33.421Z,22.40
2022-12-03T10:02:03.186Z,24.52
2022-12-03T10:04:34.313Z,23.08
2022-12-03T10:07:04.421Z,24.08
2022-12-03T10:09:33.664Z,24.02
2022-12-03T10:12:02.560Z,23.35
2022-12-03T10:14:31.536Z,23.65
2022-12-03T10:17:00.805Z,23.90
2022-12-03T10:19:35.497Z,25.88
2022-12-03T10:22:05.593Z,27.70
2022-12-03T10:24:38.221Z,24.73
2022-12-03T10:27:22.459Z,24.25
2022-12-03T10:29:58.665Z,26.02
2022-12-03T10:32:40.376Z,23.95
2022-12-03T10:35:12.501Z,25.63
2022-12-03T10:37:59.178Z,23.40
2022-12-03T10:40:31.908Z,26.17
2022-12-03T10:43:21.491Z,26.05
2022-12-03T10:46:20.040Z,27.48
2022-12-03T10:49:11.262Z,25.63
2022-12-03T10:51:40.919Z,27.55
2022-12-03T10:54:18.048Z,25.52
2022-12-03T10:56:48.833Z,25.50
2022-12-03T10:59:21.992Z,26.90
2022-12-03T11:01:52.109Z,25.50
2022-12-03T11:04:30.391Z,29.00
2022-12-03T11:07:00.499Z,28.75
2022-12-03T11:09:33.276Z,24.83
2022-12-03T11:12:06.457Z,27.85
2022-12-03T11:15:06.729Z,27.98
2022-12-03T11:17:47.211Z,25.80
2022-12-03T11:21:08.316Z,30.20
2022-12-03T11:24:05.445Z,28.98
2022-12-03T11:27:17.331Z,27.65
2022-12-03T11:30:14.791Z,26.85
2022-12-03T11:33:06.472Z,24.60
2022-12-03T11:36:07.962Z,25.48
2022-12-03T11:38:53.316Z,26.67
2022-12-03T11:41:27.243Z,21.98
2022-12-03T11:44:31.731Z,24.73
2022-12-03T11:47:19.862Z,24.13
2022-12-03T11:49:53.490Z,24.80
2022-12-03T11:52:34.322Z,26.13
2022-12-03T11:55:14.866Z,26.50
2022-12-03T11:57:44.453Z,39.63
2022-12-03T12:00:24.397Z,28.90
2022-12-03T12:02:58.332Z,26.98
2022-12-03T12:05:32.499Z,22.73
2022-12-03T12:08:04.585Z,24.15
2022-12-03T12:10:45.926Z,23.20
2022-12-03T12:13:54.602Z,23.88
2022-12-03T12:16:42.447Z,23.58
2022-12-03T12:19:39.999Z,25.40
2022-12-03T12:22:17.545Z,21.42
2022-12-03T12:24:51.581Z,20.50
2022-12-03T12:27:22.784Z,22.58
2022-12-03T12:30:22.058Z,23.83
2022-12-03T12:33:09.246Z,24.13
2022-12-03T12:35:42.463Z,23.08
2022-12-03T12:38:17.938Z,22.67
2022-12-03T12:40:50.699Z,23.55
2022-12-03T12:43:26.600Z,23.13
2022-12-03T12:46:13.824Z,22.00
2022-12-03T12:48:59.351Z,23.83
2022-12-03T12:51:30.881Z,25.30
2022-12-03T12:54:00.464Z,25.13
2022-12-03T12:56:32.711Z,25.45
2022-12-03T12:59:12.400Z,23.67
2022-12-03T13:01:43.608Z,24.45
2022-12-03T13:04:14.609Z,23.65
2022-12-03T13:06:46.175Z,23.30
2022-12-03T13:09:19.155Z,23.45
2022-12-03T13:14:23.940Z,24.55
2022-12-03T13:16:55.627Z,21.40
2022-12-03T13:19:28.987Z,22.85
2022-12-03T13:22:11.403Z,26.10
2022-12-03T13:24:45.604Z,22.90
2022-12-03T13:27:26.626Z,22.85
2022-12-03T13:30:00.149Z,23.83
2022-12-03T13:32:34.612Z,22.45
2022-12-03T13:35:08.206Z,22.45
2022-12-03T13:37:39.325Z,24.67
2022-12-03T13:40:21.834Z,21.80
2022-12-03T13:42:54.309Z,24.95
2022-12-03T13:45:32.659Z,23.63
2022-12-03T13:48:14.722Z,25.15
2022-12-03T13:50:46.219Z,26.55
2022-12-03T13:53:22.674Z,27.05
2022-12-03T13:55:55.002Z,26.27
2022-12-03T13:58:23.903Z,27.13
2022-12-03T14:00:53.513Z,27.23
2022-12-03T14:03:23.457Z,27.27
2022-12-03T14:05:55.112Z,29.45
2022-12-03T14:08:25.632Z,32.17
2022-12-03T14:11:00.340Z,27.07
2022-12-03T14:13:29.634Z,30.35
2022-12-03T14:16:00.833Z,29.95
2022-12-03T14:18:30.071Z,27.98
2022-12-03T14:20:58.988Z,28.77
2022-12-03T14:23:29.603Z,27.63
2022-12-03T14:25:58.282Z,31.40
2022-12-03T14:28:26.909Z,28.90
2022-12-03T14:30:55.922Z,28.98
2022-12-03T14:33:24.613Z,30.85
2022-12-03T14:35:56.322Z,29.20
2022-12-03T14:38:29.180Z,30.27
2022-12-03T14:40:58.432Z,30.20
2022-12-03T14:43:30.200Z,27.95
2022-12-03T14:45:58.907Z,28.17
2022-12-03T14:48:28.208Z,28.60
2022-12-03T14:50:57.135Z,28.67
2022-12-03T14:53:27.612Z,27.45
2022-12-03T14:56:02.490Z,47.95
2022-12-03T14:58:31.277Z,44.30
2022-12-03T15:01:02.536Z,28.55
2022-12-03T15:03:31.596Z,27.25
2022-12-03T15:06:01.566Z,26.10
2022-12-03T15:08:30.723Z,27.13
2022-12-03T15:10:59.498Z,28.45
2022-12-03T15:13:30.096Z,27.40
2022-12-03T15:15:58.803Z,26.38
2022-12-03T15:18:27.516Z,27.73
2022-12-03T15:20:57.426Z,23.95
2022-12-03T15:23:29.334Z,25.63
2022-12-03T15:25:58.456Z,24.58
2022-12-03T15:28:31.384Z,23.15
2022-12-03T15:31:00.213Z,23.30
2022-12-03T15:33:29.028Z,22.65
2022-12-03T15:35:59.821Z,23.35
2022-12-03T15:38:31.099Z,22.50
2022-12-03T15:41:20.702Z,21.42
2022-12-03T15:43:52.128Z,23.65
2022-12-03T15:46:21.695Z,20.90
2022-12-03T15:48:50.789Z,21.65
2022-12-03T15:51:19.798Z,19.83
2022-12-03T15:53:48.522Z,21.73
2022-12-03T15:56:19.928Z,21.58
2022-12-03T15:58:50.284Z,20.30
2022-12-03T16:01:22.035Z,20.23
2022-12-03T16:03:51.902Z,21.80
2022-12-03T16:06:24.207Z,22.63
2022-12-03T16:08:52.946Z,21.30
2022-12-03T16:11:21.887Z,22.15
2022-12-03T16:13:52.069Z,21.50
2022-12-03T16:16:20.757Z,21.90
2022-12-03T16:18:50.012Z,23.50
2022-12-03T16:21:23.396Z,21.80
2022-12-03T16:23:55.281Z,22.17
2022-12-03T16:26:24.025Z,23.23
2022-12-03T16:28:54.029Z,24.27
2022-12-03T16:31:25.194Z,23.35
2022-12-03T16:33:54.802Z,22.83
2022-12-03T16:36:23.509Z,24.05
2022-12-03T16:38:52.533Z,24.60
2022-12-03T16:41:22.431Z,23.60
2022-12-03T16:44:01.479Z,22.98
2022-12-03T16:46:33.639Z,25.35
2022-12-03T16:49:03.798Z,23.67
2022-12-03T16:51:35.521Z,24.52
2022-12-03T16:54:06.613Z,24.13
2022-12-03T16:56:35.677Z,25.25
2022-12-03T16:59:08.430Z,24.60
2022-12-03T17:01:39.654Z,30.90
2022-12-03T17:04:08.391Z,36.95
2022-12-03T17:06:37.096Z,24.08
2022-12-03T17:09:06.131Z,22.88
2022-12-03T17:11:36.934Z,23.77
2022-12-03T17:14:06.950Z,24.13
2022-12-03T17:16:35.653Z,24.33
2022-12-03T17:19:06.521Z,25.25
2022-12-03T17:21:39.120Z,21.95
2022-12-03T17:24:10.936Z,23.33
2022-12-03T17:26:41.881Z,23.88
2022-12-03T17:29:12.475Z,23.95
2022-12-03T17:31:44.246Z,26.33
2022-12-03T17:34:12.981Z,25.35
2022-12-03T17:36:41.623Z,25.70
2022-12-03T17:39:11.538Z,24.92
2022-12-03T17:41:40.226Z,37.13
2022-12-03T17:44:11.340Z,24.50
2022-12-03T17:46:43.150Z,27.88
2022-12-03T17:49:11.964Z,23.73
2022-12-03T17:51:43.393Z,25.42
2022-12-03T17:54:15.196Z,31.85
2022-12-03T17:56:44.101Z,33.92
2022-12-03T17:59:20.453Z,26.42
2022-12-03T18:01:50.644Z,28.02
2022-12-03T18:04:48.245Z,25.05
2022-12-03T18:07:18.454Z,25.33
2022-12-03T18:09:50.284Z,28.00
2022-12-03T18:12:19.936Z,26.13
2022-12-03T18:14:49.366Z,25.95
2022-12-03T18:17:19.986Z,26.33
2022-12-03T18:19:49.362Z,27.70
2022-12-03T18:22:19.369Z,28.95
2022-12-03T18:24:51.981Z,28.50
2022-12-03T18:27:21.990Z,26.65
2022-12-03T18:29:54.237Z,26.77
2022-12-03T18:32:29.622Z,27.65
2022-12-03T18:35:00.276Z,27.88
2022-12-03T18:37:31.211Z,29.85
2022-12-03T18:40:02.043Z,30.67
2022-12-03T18:42:32.551Z,29.35
2022-12-03T18:45:02.709Z,32.10
2022-12-03T18:47:33.414Z,27.52
2022-12-03T18:50:03.017Z,28.35
2022-12-03T18:52:31.757Z,28.40
2022-12-03T18:55:00.416Z,28.10
2022-12-03T18:57:29.093Z,38.53
2022-12-03T18:59:58.059Z,33.70
2022-12-03T19:05:19.921Z,29.60
2022-12-03T19:07:53.872Z,28.77
2022-12-03T19:10:25.403Z,27.65
2022-12-03T19:12:56.592Z,27.35
2022-12-03T19:15:25.424Z,28.70
2022-12-03T19:17:54.096Z,30.83
2022-12-03T19:20:24.393Z,28.90
2022-12-03T19:22:53.012Z,30.52
2022-12-03T19:25:24.324Z,26.67
2022-12-03T19:27:55.142Z,25.60
2022-12-03T19:30:23.977Z,29.73
2022-12-03T19:32:52.858Z,29.52
2022-12-03T19:35:22.419Z,31.25
2022-12-03T19:37:52.518Z,27.88
2022-12-03T19:40:21.451Z,31.23
2022-12-03T19:42:50.318Z,30.85
2022-12-03T19:45:21.393Z,28.63
2022-12-03T19:47:50.046Z,31.30
2022-12-03T19:50:23.080Z,30.92
2022-12-03T19:52:53.752Z,28.10
2022-12-03T19:55:22.403Z,31.25
2022-12-03T19:57:51.126Z,33.58
2022-12-03T20:00:20.059Z,30.27
2022-12-03T20:02:50.881Z,28.70
2022-12-03T20:05:21.499Z,28.77
2022-12-03T20:07:50.506Z,28.23
2022-12-03T20:10:21.346Z,30.83
2022-12-03T20:12:49.984Z,28.70
2022-12-03T20:15:21.161Z,26.65
2022-12-03T20:17:50.269Z,31.42
2022-12-03T20:20:19.106Z,27.08
2022-12-03T20:22:47.881Z,28.30
2022-12-03T20:25:16.580Z,29.65
2022-12-03T20:27:46.892Z,27.30
2022-12-03T20:30:15.736Z,28.30
2022-12-03T20:32:47.163Z,27.98
2022-12-03T20:35:17.089Z,28.70
2022-12-03T20:38:06.740Z,27.90
2022-12-03T20:40:55.423Z,27.88
2022-12-03T20:43:26.468Z,29.52
2022-12-03T20:46:01.065Z,28.17
2022-12-03T20:48:33.924Z,29.88
2022-12-03T20:51:04.715Z,29.55
2022-12-03T20:53:34.257Z,27.70
2022-12-03T20:56:07.579Z,29.13
2022-12-03T20:58:57.912Z,31.73
2022-12-03T21:01:50.289Z,29.10
2022-12-03T21:04:39.775Z,29.17
2022-12-03T21:07:34.633Z,29.08
2022-12-03T21:10:45.799Z,31.27
2022-12-03T21:13:15.713Z,28.63
2022-12-03T21:15:46.879Z,31.52
2022-12-03T21:18:35.872Z,28.85
2022-12-03T21:21:30.348Z,28.77
2022-12-03T21:24:08.711Z,28.60
2022-12-03T21:27:00.467Z,29.73
2022-12-03T21:29:29.465Z,29.45
2022-12-03T21:31:59.640Z,29.40
2022-12-03T21:34:35.589Z,47.47
2022-12-03T21:37:05.936Z,34.88
2022-12-03T21:39:37.356Z,31.00
2022-12-03T21:42:34.275Z,28.38
2022-12-03T21:44:54.776Z,29.17
2022-12-03T21:47:25.399Z,28.08
2022-12-03T21:49:54.661Z,29.73
2022-12-03T21:52:23.572Z,47.28
2022-12-03T21:54:53.495Z,33.80
2022-12-03T21:57:22.458Z,26.85
2022-12-03T21:59:51.714Z,30.60
2022-12-03T22:02:20.614Z,29.50
2022-12-03T22:04:52.179Z,27.98
2022-12-03T22:07:22.452Z,29.25
2022-12-03T22:09:51.872Z,29.13
2022-12-03T22:12:22.821Z,28.52
2022-12-03T22:14:53.822Z,30.75
2022-12-03T22:17:24.725Z,30.50
2022-12-03T22:19:56.242Z,27.60
2022-12-03T22:22:25.278Z,28.30
2022-12-03T22:24:53.969Z,27.40
2022-12-03T22:27:22.898Z,29.52
2022-12-03T22:29:51.626Z,29.92
2022-12-03T22:32:20.943Z,31.17
2022-12-03T22:34:52.172Z,29.08
2022-12-03T22:37:24.893Z,27.95
2022-12-03T22:39:59.882Z,29.35
2022-12-03T22:42:31.190Z,29.60
2022-12-03T22:45:02.102Z,30.15
2022-12-03T22:47:30.789Z,29.25
2022-12-03T22:50:01.470Z,28.27
2022-12-03T22:52:31.870Z,30.30
2022-12-03T22:55:00.538Z,30.38
2022-12-03T22:57:32.376Z,28.45
2022-12-03T23:00:01.313Z,29.38
2022-12-03T23:02:30.518Z,30.15
2022-12-03T23:04:59.211Z,29.55
2022-12-03T23:07:27.930Z,31.85
2022-12-03T23:09:58.336Z,32.35
2022-12-03T23:12:27.100Z,27.63
2022-12-03T23:14:56.257Z,30.63
2022-12-03T23:17:24.974Z,31.85
2022-12-03T23:19:53.980Z,30.52
2022-12-03T23:22:23.124Z,28.08
2022-12-03T23:24:51.948Z,28.42
2022-12-03T23:27:24.334Z,28.92
2022-12-03T23:29:53.313Z,28.00
2022-12-03T23:32:23.716Z,28.73
2022-12-03T23:34:54.559Z,27.23
2022-12-03T23:37:23.716Z,29.08
2022-12-03T23:39:52.763Z,29.20
2022-12-03T23:42:25.632Z,27.05
2022-12-03T23:44:54.826Z,29.20
2022-12-03T23:47:30.367Z,27.83
2022-12-03T23:49:59.321Z,28.30
2022-12-03T23:52:28.485Z,29.13
2022-12-03T23:54:57.182Z,28.10
2022-12-03T23:57:27.812Z,31.45
2022-12-03T23:59:56.861Z,29.17
